sensor_id;sensor_type;location;lat;lon;timestamp;P1;durP1;ratioP1;P2;durP2;ratioP2
17524;SDS011;40431;52.198;9.902;2023-12-20T00:00:02;10.00;;;9.27;;
17524;SDS011;40431;52.198;9.902;2023-12-20T00:02:29;9.00;;;8.50;;
17524;SDS011;40431;52.198;9.902;2023-12-20T00:04:56;9.30;;;8.70;;
17524;SDS011;40431;52.198;9.902;2023-12-20T00:07:22;8.70;;;8.20;;
17524;SDS011;40431;52.198;9.902;2023-12-20T00:09:48;8.83;;;8.23;;
17524;SDS011;40431;52.198;9.902;2023-12-20T00:12:16;8.83;;;8.23;;
17524;SDS011;40431;52.198;9.902;2023-12-20T00:14:42;8.00;;;7.50;;
17524;SDS011;40431;52.198;9.902;2023-12-20T00:17:08;8.23;;;7.73;;
17524;SDS011;40431;52.198;9.902;2023-12-20T00:19:35;8.10;;;7.60;;
17524;SDS011;40431;52.198;9.902;2023-12-20T00:22:01;8.03;;;7.53;;
17524;SDS011;40431;52.198;9.902;2023-12-20T00:24:27;8.30;;;7.70;;
17524;SDS011;40431;52.198;9.902;2023-12-20T00:26:54;8.27;;;7.77;;
17524;SDS011;40431;52.198;9.902;2023-12-20T00:29:21;7.87;;;7.37;;
17524;SDS011;40431;52.198;9.902;2023-12-20T00:31:48;8.60;;;8.00;;
17524;SDS011;40431;52.198;9.902;2023-12-20T00:34:14;8.03;;;7.53;;
17524;SDS011;40431;52.198;9.902;2023-12-20T00:36:40;8.13;;;7.53;;
17524;SDS011;40431;52.198;9.902;2023-12-20T00:39:07;8.00;;;7.40;;
17524;SDS011;40431;52.198;9.902;2023-12-20T00:41:33;8.83;;;7.57;;
17524;SDS011;40431;52.198;9.902;2023-12-20T00:43:59;8.80;;;8.13;;
17524;SDS011;40431;52.198;9.902;2023-12-20T00:46:27;8.00;;;7.20;;
17524;SDS011;40431;52.198;9.902;2023-12-20T00:48:53;8.63;;;7.83;;
17524;SDS011;40431;52.198;9.902;2023-12-20T00:51:20;7.57;;;6.87;;
17524;SDS011;40431;52.198;9.902;2023-12-20T00:53:47;9.50;;;6.87;;
17524;SDS011;40431;52.198;9.902;2023-12-20T00:56:14;7.17;;;6.33;;
17524;SDS011;40431;52.198;9.902;2023-12-20T00:58:40;6.33;;;5.70;;
17524;SDS011;40431;52.198;9.902;2023-12-20T01:01:07;7.87;;;5.77;;
17524;SDS011;40431;52.198;9.902;2023-12-20T01:03:34;11.13;;;7.23;;
17524;SDS011;40431;52.198;9.902;2023-12-20T01:06:01;8.30;;;6.73;;
17524;SDS011;40431;52.198;9.902;2023-12-20T01:08:27;7.57;;;6.77;;
17524;SDS011;40431;52.198;9.902;2023-12-20T01:10:53;10.67;;;7.27;;
17524;SDS011;40431;52.198;9.902;2023-12-20T01:13:20;9.10;;;6.83;;
17524;SDS011;40431;52.198;9.902;2023-12-20T01:15:46;6.87;;;6.27;;
17524;SDS011;40431;52.198;9.902;2023-12-20T01:18:13;6.63;;;6.03;;
17524;SDS011;40431;52.198;9.902;2023-12-20T01:20:41;5.93;;;5.53;;
17524;SDS011;40431;52.198;9.902;2023-12-20T01:23:07;11.50;;;5.40;;
17524;SDS011;40431;52.198;9.902;2023-12-20T01:25:34;7.43;;;4.47;;
17524;SDS011;40431;52.198;9.902;2023-12-20T01:28:00;6.60;;;4.00;;
17524;SDS011;40431;52.198;9.902;2023-12-20T01:30:28;8.77;;;3.50;;
17524;SDS011;40431;52.198;9.902;2023-12-20T01:32:54;7.27;;;3.20;;
17524;SDS011;40431;52.198;9.902;2023-12-20T01:35:20;6.17;;;2.90;;
17524;SDS011;40431;52.198;9.902;2023-12-20T01:37:48;5.50;;;3.20;;
17524;SDS011;40431;52.198;9.902;2023-12-20T01:40:14;7.37;;;3.43;;
17524;SDS011;40431;52.198;9.902;2023-12-20T01:42:41;6.10;;;3.10;;
17524;SDS011;40431;52.198;9.902;2023-12-20T01:45:08;6.03;;;2.50;;
17524;SDS011;40431;52.198;9.902;2023-12-20T01:47:35;5.67;;;2.87;;
17524;SDS011;40431;52.198;9.902;2023-12-20T01:50:02;5.97;;;2.70;;
17524;SDS011;40431;52.198;9.902;2023-12-20T01:52:29;6.13;;;3.13;;
17524;SDS011;40431;52.198;9.902;2023-12-20T01:54:57;4.50;;;2.77;;
17524;SDS011;40431;52.198;9.902;2023-12-20T01:57:27;5.50;;;3.03;;
17524;SDS011;40431;52.198;9.902;2023-12-20T01:59:53;4.80;;;2.30;;
17524;SDS011;40431;52.198;9.902;2023-12-20T02:02:20;8.40;;;2.80;;
17524;SDS011;40431;52.198;9.902;2023-12-20T02:04:46;5.37;;;2.73;;
17524;SDS011;40431;52.198;9.902;2023-12-20T02:07:12;4.80;;;2.40;;
17524;SDS011;40431;52.198;9.902;2023-12-20T02:09:39;6.20;;;3.13;;
17524;SDS011;40431;52.198;9.902;2023-12-20T02:12:07;7.20;;;3.07;;
17524;SDS011;40431;52.198;9.902;2023-12-20T02:14:34;4.80;;;2.73;;
17524;SDS011;40431;52.198;9.902;2023-12-20T02:17:00;6.47;;;3.00;;
17524;SDS011;40431;52.198;9.902;2023-12-20T02:19:26;6.03;;;3.07;;
17524;SDS011;40431;52.198;9.902;2023-12-20T02:22:05;3.83;;;2.63;;
17524;SDS011;40431;52.198;9.902;2023-12-20T02:24:31;5.73;;;2.60;;
17524;SDS011;40431;52.198;9.902;2023-12-20T02:26:58;4.40;;;2.87;;
17524;SDS011;40431;52.198;9.902;2023-12-20T02:29:24;5.50;;;3.00;;
17524;SDS011;40431;52.198;9.902;2023-12-20T02:31:51;11.03;;;3.30;;
17524;SDS011;40431;52.198;9.902;2023-12-20T02:34:18;11.93;;;3.10;;
17524;SDS011;40431;52.198;9.902;2023-12-20T02:36:44;8.47;;;3.43;;
17524;SDS011;40431;52.198;9.902;2023-12-20T02:39:13;3.67;;;3.07;;
17524;SDS011;40431;52.198;9.902;2023-12-20T02:41:40;4.00;;;2.73;;
17524;SDS011;40431;52.198;9.902;2023-12-20T02:44:06;5.93;;;3.07;;
17524;SDS011;40431;52.198;9.902;2023-12-20T02:46:32;6.07;;;3.03;;
17524;SDS011;40431;52.198;9.902;2023-12-20T02:48:58;6.43;;;3.10;;
17524;SDS011;40431;52.198;9.902;2023-12-20T02:51:25;4.40;;;2.90;;
17524;SDS011;40431;52.198;9.902;2023-12-20T02:53:51;3.93;;;2.60;;
17524;SDS011;40431;52.198;9.902;2023-12-20T02:56:19;6.57;;;3.50;;
17524;SDS011;40431;52.198;9.902;2023-12-20T02:58:45;6.80;;;3.03;;
17524;SDS011;40431;52.198;9.902;2023-12-20T03:01:11;8.33;;;3.07;;
17524;SDS011;40431;52.198;9.902;2023-12-20T03:03:38;5.80;;;3.00;;
17524;SDS011;40431;52.198;9.902;2023-12-20T03:06:04;5.77;;;2.80;;
17524;SDS011;40431;52.198;9.902;2023-12-20T03:08:30;6.73;;;3.00;;
17524;SDS011;40431;52.198;9.902;2023-12-20T03:10:58;2.33;;;2.13;;
17524;SDS011;40431;52.198;9.902;2023-12-20T03:13:26;5.43;;;3.00;;
17524;SDS011;40431;52.198;9.902;2023-12-20T03:15:53;6.60;;;2.70;;
17524;SDS011;40431;52.198;9.902;2023-12-20T03:18:19;5.77;;;2.63;;
17524;SDS011;40431;52.198;9.902;2023-12-20T03:20:46;4.60;;;2.70;;
17524;SDS011;40431;52.198;9.902;2023-12-20T03:23:14;2.90;;;2.50;;
17524;SDS011;40431;52.198;9.902;2023-12-20T03:25:41;6.77;;;2.83;;
17524;SDS011;40431;52.198;9.902;2023-12-20T03:28:07;3.87;;;2.60;;
17524;SDS011;40431;52.198;9.902;2023-12-20T03:30:35;6.60;;;2.40;;
17524;SDS011;40431;52.198;9.902;2023-12-20T03:33:01;6.43;;;3.37;;
17524;SDS011;40431;52.198;9.902;2023-12-20T03:35:27;5.97;;;3.47;;
17524;SDS011;40431;52.198;9.902;2023-12-20T03:37:54;7.60;;;2.90;;
17524;SDS011;40431;52.198;9.902;2023-12-20T03:40:22;5.27;;;2.90;;
17524;SDS011;40431;52.198;9.902;2023-12-20T03:42:48;4.90;;;2.57;;
17524;SDS011;40431;52.198;9.902;2023-12-20T03:45:14;5.33;;;3.07;;
17524;SDS011;40431;52.198;9.902;2023-12-20T03:47:42;7.83;;;3.03;;
17524;SDS011;40431;52.198;9.902;2023-12-20T03:50:09;9.43;;;3.47;;
17524;SDS011;40431;52.198;9.902;2023-12-20T03:52:35;4.77;;;2.60;;
17524;SDS011;40431;52.198;9.902;2023-12-20T03:55:01;7.00;;;3.40;;
17524;SDS011;40431;52.198;9.902;2023-12-20T03:57:28;4.87;;;2.87;;
17524;SDS011;40431;52.198;9.902;2023-12-20T03:59:54;5.07;;;2.87;;
17524;SDS011;40431;52.198;9.902;2023-12-20T04:02:20;7.47;;;3.60;;
17524;SDS011;40431;52.198;9.902;2023-12-20T04:04:48;9.20;;;2.73;;
17524;SDS011;40431;52.198;9.902;2023-12-20T04:07:14;5.20;;;2.90;;
17524;SDS011;40431;52.198;9.902;2023-12-20T04:09:41;5.20;;;3.03;;
17524;SDS011;40431;52.198;9.902;2023-12-20T04:12:07;6.20;;;3.10;;
17524;SDS011;40431;52.198;9.902;2023-12-20T04:14:33;9.33;;;3.10;;
17524;SDS011;40431;52.198;9.902;2023-12-20T04:17:00;7.07;;;3.67;;
17524;SDS011;40431;52.198;9.902;2023-12-20T04:19:26;10.67;;;3.63;;
17524;SDS011;40431;52.198;9.902;2023-12-20T04:21:54;12.57;;;4.40;;
17524;SDS011;40431;52.198;9.902;2023-12-20T04:24:19;9.77;;;4.03;;
17524;SDS011;40431;52.198;9.902;2023-12-20T04:26:45;6.13;;;3.50;;
17524;SDS011;40431;52.198;9.902;2023-12-20T04:29:12;5.10;;;3.77;;
17524;SDS011;40431;52.198;9.902;2023-12-20T04:31:38;4.70;;;3.27;;
17524;SDS011;40431;52.198;9.902;2023-12-20T04:34:04;6.83;;;3.53;;
17524;SDS011;40431;52.198;9.902;2023-12-20T04:36:31;8.23;;;3.10;;
17524;SDS011;40431;52.198;9.902;2023-12-20T04:38:58;6.07;;;3.20;;
17524;SDS011;40431;52.198;9.902;2023-12-20T04:41:25;3.80;;;3.00;;
17524;SDS011;40431;52.198;9.902;2023-12-20T04:43:52;7.47;;;3.77;;
17524;SDS011;40431;52.198;9.902;2023-12-20T04:46:19;5.87;;;3.93;;
17524;SDS011;40431;52.198;9.902;2023-12-20T04:48:45;7.33;;;3.83;;
17524;SDS011;40431;52.198;9.902;2023-12-20T04:51:11;6.57;;;4.07;;
17524;SDS011;40431;52.198;9.902;2023-12-20T04:53:37;7.40;;;4.23;;
17524;SDS011;40431;52.198;9.902;2023-12-20T04:56:05;7.07;;;3.93;;
17524;SDS011;40431;52.198;9.902;2023-12-20T04:58:32;6.77;;;4.00;;
17524;SDS011;40431;52.198;9.902;2023-12-20T05:00:58;7.70;;;4.33;;
17524;SDS011;40431;52.198;9.902;2023-12-20T05:03:25;9.60;;;3.77;;
17524;SDS011;40431;52.198;9.902;2023-12-20T05:05:51;6.27;;;4.00;;
17524;SDS011;40431;52.198;9.902;2023-12-20T05:08:17;5.97;;;4.33;;
17524;SDS011;40431;52.198;9.902;2023-12-20T05:10:44;6.80;;;3.53;;
17524;SDS011;40431;52.198;9.902;2023-12-20T05:13:11;7.90;;;4.00;;
17524;SDS011;40431;52.198;9.902;2023-12-20T05:15:37;8.20;;;4.77;;
17524;SDS011;40431;52.198;9.902;2023-12-20T05:18:04;6.90;;;3.70;;
17524;SDS011;40431;52.198;9.902;2023-12-20T05:20:30;8.40;;;4.40;;
17524;SDS011;40431;52.198;9.902;2023-12-20T05:22:57;7.33;;;4.17;;
17524;SDS011;40431;52.198;9.902;2023-12-20T05:25:23;13.37;;;5.57;;
17524;SDS011;40431;52.198;9.902;2023-12-20T05:27:50;10.07;;;4.20;;
17524;SDS011;40431;52.198;9.902;2023-12-20T05:30:17;6.97;;;4.83;;
17524;SDS011;40431;52.198;9.902;2023-12-20T05:32:44;10.27;;;5.13;;
17524;SDS011;40431;52.198;9.902;2023-12-20T05:35:10;5.33;;;4.60;;
17524;SDS011;40431;52.198;9.902;2023-12-20T05:37:36;8.47;;;4.87;;
17524;SDS011;40431;52.198;9.902;2023-12-20T05:40:03;8.37;;;4.13;;
17524;SDS011;40431;52.198;9.902;2023-12-20T05:42:30;6.07;;;4.33;;
17524;SDS011;40431;52.198;9.902;2023-12-20T05:44:56;7.73;;;4.27;;
17524;SDS011;40431;52.198;9.902;2023-12-20T05:47:24;10.13;;;4.40;;
17524;SDS011;40431;52.198;9.902;2023-12-20T05:49:50;7.93;;;4.67;;
17524;SDS011;40431;52.198;9.902;2023-12-20T05:52:16;10.13;;;4.70;;
17524;SDS011;40431;52.198;9.902;2023-12-20T05:54:43;6.33;;;4.47;;
17524;SDS011;40431;52.198;9.902;2023-12-20T05:57:09;7.67;;;4.20;;
17524;SDS011;40431;52.198;9.902;2023-12-20T05:59:35;9.83;;;4.50;;
17524;SDS011;40431;52.198;9.902;2023-12-20T06:02:02;5.87;;;4.00;;
17524;SDS011;40431;52.198;9.902;2023-12-20T06:04:30;11.20;;;4.77;;
17524;SDS011;40431;52.198;9.902;2023-12-20T06:06:57;12.17;;;4.53;;
17524;SDS011;40431;52.198;9.902;2023-12-20T06:09:24;13.93;;;5.30;;
17524;SDS011;40431;52.198;9.902;2023-12-20T06:11:50;7.90;;;4.20;;
17524;SDS011;40431;52.198;9.902;2023-12-20T06:14:17;11.07;;;6.43;;
17524;SDS011;40431;52.198;9.902;2023-12-20T06:16:43;9.30;;;5.10;;
17524;SDS011;40431;52.198;9.902;2023-12-20T06:19:10;8.20;;;4.70;;
17524;SDS011;40431;52.198;9.902;2023-12-20T06:21:38;11.77;;;5.27;;
17524;SDS011;40431;52.198;9.902;2023-12-20T06:24:04;9.87;;;5.47;;
17524;SDS011;40431;52.198;9.902;2023-12-20T06:26:31;14.30;;;6.17;;
17524;SDS011;40431;52.198;9.902;2023-12-20T06:28:57;12.17;;;5.23;;
17524;SDS011;40431;52.198;9.902;2023-12-20T06:31:23;7.87;;;5.03;;
17524;SDS011;40431;52.198;9.902;2023-12-20T06:33:50;13.80;;;5.60;;
17524;SDS011;40431;52.198;9.902;2023-12-20T06:36:22;10.37;;;4.97;;
17524;SDS011;40431;52.198;9.902;2023-12-20T06:38:50;12.13;;;5.17;;
17524;SDS011;40431;52.198;9.902;2023-12-20T06:41:16;11.17;;;4.40;;
17524;SDS011;40431;52.198;9.902;2023-12-20T06:43:43;6.23;;;4.97;;
17524;SDS011;40431;52.198;9.902;2023-12-20T06:46:09;11.57;;;5.87;;
17524;SDS011;40431;52.198;9.902;2023-12-20T06:48:36;13.20;;;4.80;;
17524;SDS011;40431;52.198;9.902;2023-12-20T06:51:02;13.30;;;4.97;;
17524;SDS011;40431;52.198;9.902;2023-12-20T06:53:29;8.57;;;3.97;;
17524;SDS011;40431;52.198;9.902;2023-12-20T06:55:57;9.67;;;5.13;;
17524;SDS011;40431;52.198;9.902;2023-12-20T06:58:23;8.07;;;4.70;;
17524;SDS011;40431;52.198;9.902;2023-12-20T07:00:50;10.03;;;5.30;;
17524;SDS011;40431;52.198;9.902;2023-12-20T07:03:16;11.23;;;5.47;;
17524;SDS011;40431;52.198;9.902;2023-12-20T07:05:43;10.93;;;5.10;;
17524;SDS011;40431;52.198;9.902;2023-12-20T07:08:09;12.03;;;7.80;;
17524;SDS011;40431;52.198;9.902;2023-12-20T07:10:38;20.63;;;5.50;;
17524;SDS011;40431;52.198;9.902;2023-12-20T07:13:06;7.47;;;4.97;;
17524;SDS011;40431;52.198;9.902;2023-12-20T07:15:32;8.57;;;4.80;;
17524;SDS011;40431;52.198;9.902;2023-12-20T07:17:59;14.37;;;5.53;;
17524;SDS011;40431;52.198;9.902;2023-12-20T07:20:25;8.73;;;5.10;;
17524;SDS011;40431;52.198;9.902;2023-12-20T07:22:52;13.67;;;4.87;;
17524;SDS011;40431;52.198;9.902;2023-12-20T07:25:18;10.03;;;6.17;;
17524;SDS011;40431;52.198;9.902;2023-12-20T07:27:45;12.17;;;5.87;;
17524;SDS011;40431;52.198;9.902;2023-12-20T07:30:13;10.27;;;5.57;;
17524;SDS011;40431;52.198;9.902;2023-12-20T07:32:39;8.40;;;5.13;;
17524;SDS011;40431;52.198;9.902;2023-12-20T07:35:06;9.33;;;4.77;;
17524;SDS011;40431;52.198;9.902;2023-12-20T07:37:33;12.60;;;4.90;;
17524;SDS011;40431;52.198;9.902;2023-12-20T07:39:59;7.20;;;5.23;;
17524;SDS011;40431;52.198;9.902;2023-12-20T07:42:25;9.97;;;5.67;;
17524;SDS011;40431;52.198;9.902;2023-12-20T07:44:52;6.60;;;4.50;;
17524;SDS011;40431;52.198;9.902;2023-12-20T07:47:20;14.57;;;5.40;;
17524;SDS011;40431;52.198;9.902;2023-12-20T07:49:46;10.80;;;5.60;;
17524;SDS011;40431;52.198;9.902;2023-12-20T07:52:13;8.87;;;5.53;;
17524;SDS011;40431;52.198;9.902;2023-12-20T07:54:39;9.30;;;5.80;;
17524;SDS011;40431;52.198;9.902;2023-12-20T07:57:06;8.80;;;6.10;;
17524;SDS011;40431;52.198;9.902;2023-12-20T07:59:32;9.20;;;5.70;;
17524;SDS011;40431;52.198;9.902;2023-12-20T08:01:59;9.40;;;6.50;;
17524;SDS011;40431;52.198;9.902;2023-12-20T08:04:26;12.17;;;6.40;;
17524;SDS011;40431;52.198;9.902;2023-12-20T08:06:53;13.53;;;6.93;;
17524;SDS011;40431;52.198;9.902;2023-12-20T08:09:19;13.00;;;6.80;;
17524;SDS011;40431;52.198;9.902;2023-12-20T08:11:45;9.47;;;7.00;;
17524;SDS011;40431;52.198;9.902;2023-12-20T08:14:12;18.73;;;6.93;;
17524;SDS011;40431;52.198;9.902;2023-12-20T08:16:38;10.17;;;6.30;;
17524;SDS011;40431;52.198;9.902;2023-12-20T08:19:05;22.03;;;7.90;;
17524;SDS011;40431;52.198;9.902;2023-12-20T08:21:32;8.60;;;7.13;;
17524;SDS011;40431;52.198;9.902;2023-12-20T08:23:59;11.57;;;5.87;;
17524;SDS011;40431;52.198;9.902;2023-12-20T08:26:25;11.93;;;6.23;;
17524;SDS011;40431;52.198;9.902;2023-12-20T08:28:52;12.33;;;5.77;;
17524;SDS011;40431;52.198;9.902;2023-12-20T08:31:19;14.07;;;6.33;;
17524;SDS011;40431;52.198;9.902;2023-12-20T08:33:46;8.87;;;5.50;;
17524;SDS011;40431;52.198;9.902;2023-12-20T08:36:13;12.17;;;5.73;;
17524;SDS011;40431;52.198;9.902;2023-12-20T08:38:41;12.43;;;5.53;;
17524;SDS011;40431;52.198;9.902;2023-12-20T08:41:07;10.00;;;5.90;;
17524;SDS011;40431;52.198;9.902;2023-12-20T08:43:34;10.27;;;5.00;;
17524;SDS011;40431;52.198;9.902;2023-12-20T08:46:01;8.87;;;5.50;;
17524;SDS011;40431;52.198;9.902;2023-12-20T08:48:27;10.43;;;6.00;;
17524;SDS011;40431;52.198;9.902;2023-12-20T08:50:54;9.33;;;5.67;;
17524;SDS011;40431;52.198;9.902;2023-12-20T08:53:20;10.97;;;5.97;;
17524;SDS011;40431;52.198;9.902;2023-12-20T08:55:48;13.60;;;5.90;;
17524;SDS011;40431;52.198;9.902;2023-12-20T08:58:14;8.43;;;6.83;;
17524;SDS011;40431;52.198;9.902;2023-12-20T09:00:40;7.47;;;5.80;;
17524;SDS011;40431;52.198;9.902;2023-12-20T09:03:07;8.17;;;5.47;;
17524;SDS011;40431;52.198;9.902;2023-12-20T09:05:33;11.00;;;6.70;;
17524;SDS011;40431;52.198;9.902;2023-12-20T09:07:59;9.73;;;6.83;;
17524;SDS011;40431;52.198;9.902;2023-12-20T09:10:25;10.37;;;6.23;;
17524;SDS011;40431;52.198;9.902;2023-12-20T09:12:53;12.60;;;6.03;;
17524;SDS011;40431;52.198;9.902;2023-12-20T09:15:21;13.20;;;6.43;;
17524;SDS011;40431;52.198;9.902;2023-12-20T09:17:47;10.67;;;6.07;;
17524;SDS011;40431;52.198;9.902;2023-12-20T09:20:14;15.10;;;6.10;;
17524;SDS011;40431;52.198;9.902;2023-12-20T09:22:40;9.03;;;6.10;;
17524;SDS011;40431;52.198;9.902;2023-12-20T09:25:07;11.57;;;6.03;;
17524;SDS011;40431;52.198;9.902;2023-12-20T09:27:33;9.67;;;5.67;;
17524;SDS011;40431;52.198;9.902;2023-12-20T09:30:01;7.70;;;5.13;;
17524;SDS011;40431;52.198;9.902;2023-12-20T09:32:29;10.83;;;6.67;;
17524;SDS011;40431;52.198;9.902;2023-12-20T09:34:55;12.33;;;6.53;;
17524;SDS011;40431;52.198;9.902;2023-12-20T09:37:22;7.60;;;5.50;;
17524;SDS011;40431;52.198;9.902;2023-12-20T09:39:48;8.50;;;5.03;;
17524;SDS011;40431;52.198;9.902;2023-12-20T09:42:16;11.53;;;6.07;;
17524;SDS011;40431;52.198;9.902;2023-12-20T09:44:47;13.67;;;6.17;;
17524;SDS011;40431;52.198;9.902;2023-12-20T09:47:15;12.07;;;6.13;;
17524;SDS011;40431;52.198;9.902;2023-12-20T09:49:45;11.43;;;5.30;;
17524;SDS011;40431;52.198;9.902;2023-12-20T09:52:12;10.73;;;5.60;;
17524;SDS011;40431;52.198;9.902;2023-12-20T09:54:40;13.67;;;6.07;;
17524;SDS011;40431;52.198;9.902;2023-12-20T09:57:06;9.23;;;5.53;;
17524;SDS011;40431;52.198;9.902;2023-12-20T09:59:33;9.43;;;5.80;;
17524;SDS011;40431;52.198;9.902;2023-12-20T10:01:59;8.77;;;5.53;;
17524;SDS011;40431;52.198;9.902;2023-12-20T10:04:30;9.33;;;5.07;;
17524;SDS011;40431;52.198;9.902;2023-12-20T10:07:01;8.53;;;5.27;;
17524;SDS011;40431;52.198;9.902;2023-12-20T10:09:29;8.60;;;5.23;;
17524;SDS011;40431;52.198;9.902;2023-12-20T10:11:57;11.90;;;5.43;;
17524;SDS011;40431;52.198;9.902;2023-12-20T10:14:24;8.13;;;5.23;;
17524;SDS011;40431;52.198;9.902;2023-12-20T10:16:50;8.83;;;5.03;;
17524;SDS011;40431;52.198;9.902;2023-12-20T10:19:17;10.33;;;6.23;;
17524;SDS011;40431;52.198;9.902;2023-12-20T10:21:45;7.07;;;5.07;;
17524;SDS011;40431;52.198;9.902;2023-12-20T10:24:15;10.40;;;5.97;;
17524;SDS011;40431;52.198;9.902;2023-12-20T10:26:43;6.67;;;5.13;;
17524;SDS011;40431;52.198;9.902;2023-12-20T10:29:09;9.20;;;5.57;;
17524;SDS011;40431;52.198;9.902;2023-12-20T10:31:36;7.03;;;5.97;;
17524;SDS011;40431;52.198;9.902;2023-12-20T10:34:03;7.73;;;6.07;;
17524;SDS011;40431;52.198;9.902;2023-12-20T10:36:31;10.30;;;6.37;;
17524;SDS011;40431;52.198;9.902;2023-12-20T10:38:59;8.20;;;7.40;;
17524;SDS011;40431;52.198;9.902;2023-12-20T10:41:26;10.90;;;7.20;;
17524;SDS011;40431;52.198;9.902;2023-12-20T10:43:58;7.67;;;5.90;;
17524;SDS011;40431;52.198;9.902;2023-12-20T10:46:26;9.10;;;6.50;;
17524;SDS011;40431;52.198;9.902;2023-12-20T10:48:53;7.87;;;7.07;;
17524;SDS011;40431;52.198;9.902;2023-12-20T10:51:20;7.87;;;7.07;;
17524;SDS011;40431;52.198;9.902;2023-12-20T10:53:48;10.73;;;6.63;;
17524;SDS011;40431;52.198;9.902;2023-12-20T10:56:16;10.30;;;7.90;;
17524;SDS011;40431;52.198;9.902;2023-12-20T10:58:44;7.50;;;6.23;;
17524;SDS011;40431;52.198;9.902;2023-12-20T11:01:12;9.10;;;7.70;;
17524;SDS011;40431;52.198;9.902;2023-12-20T11:03:39;8.77;;;7.73;;
17524;SDS011;40431;52.198;9.902;2023-12-20T11:06:13;13.20;;;8.17;;
17524;SDS011;40431;52.198;9.902;2023-12-20T11:08:49;12.63;;;7.40;;
17524;SDS011;40431;52.198;9.902;2023-12-20T11:11:22;14.63;;;7.80;;
17524;SDS011;40431;52.198;9.902;2023-12-20T11:13:54;11.33;;;7.43;;
17524;SDS011;40431;52.198;9.902;2023-12-20T11:16:23;14.30;;;8.23;;
17524;SDS011;40431;52.198;9.902;2023-12-20T11:18:50;13.37;;;8.63;;
17524;SDS011;40431;52.198;9.902;2023-12-20T11:21:17;9.00;;;8.10;;
17524;SDS011;40431;52.198;9.902;2023-12-20T11:23:44;12.23;;;9.67;;
17524;SDS011;40431;52.198;9.902;2023-12-20T11:26:10;9.87;;;7.47;;
17524;SDS011;40431;52.198;9.902;2023-12-20T11:28:38;10.73;;;8.20;;
17524;SDS011;40431;52.198;9.902;2023-12-20T11:31:04;10.70;;;8.63;;
17524;SDS011;40431;52.198;9.902;2023-12-20T11:33:35;10.87;;;9.03;;
17524;SDS011;40431;52.198;9.902;2023-12-20T11:36:03;13.20;;;10.57;;
17524;SDS011;40431;52.198;9.902;2023-12-20T11:38:38;9.03;;;7.97;;
17524;SDS011;40431;52.198;9.902;2023-12-20T11:41:05;17.67;;;9.10;;
17524;SDS011;40431;52.198;9.902;2023-12-20T11:43:32;9.23;;;7.67;;
17524;SDS011;40431;52.198;9.902;2023-12-20T11:46:06;13.47;;;8.87;;
17524;SDS011;40431;52.198;9.902;2023-12-20T11:48:34;9.73;;;7.73;;
17524;SDS011;40431;52.198;9.902;2023-12-20T11:51:01;10.53;;;8.00;;
17524;SDS011;40431;52.198;9.902;2023-12-20T11:53:28;7.47;;;6.67;;
17524;SDS011;40431;52.198;9.902;2023-12-20T11:55:55;10.17;;;7.07;;
17524;SDS011;40431;52.198;9.902;2023-12-20T11:58:22;7.90;;;7.00;;
17524;SDS011;40431;52.198;9.902;2023-12-20T12:00:49;11.77;;;6.23;;
17524;SDS011;40431;52.198;9.902;2023-12-20T12:03:17;10.27;;;6.20;;
17524;SDS011;40431;52.198;9.902;2023-12-20T12:05:45;14.93;;;6.57;;
17524;SDS011;40431;52.198;9.902;2023-12-20T12:08:13;8.77;;;6.77;;
17524;SDS011;40431;52.198;9.902;2023-12-20T12:10:39;7.50;;;4.83;;
17524;SDS011;40431;52.198;9.902;2023-12-20T12:13:06;4.73;;;3.37;;
17524;SDS011;40431;52.198;9.902;2023-12-20T12:15:32;5.77;;;4.20;;
17524;SDS011;40431;52.198;9.902;2023-12-20T12:17:58;4.63;;;3.13;;
17524;SDS011;40431;52.198;9.902;2023-12-20T12:20:26;2.43;;;2.03;;
17524;SDS011;40431;52.198;9.902;2023-12-20T12:22:59;2.20;;;2.00;;
17524;SDS011;40431;52.198;9.902;2023-12-20T12:25:26;2.53;;;2.33;;
17524;SDS011;40431;52.198;9.902;2023-12-20T12:27:52;2.23;;;1.90;;
17524;SDS011;40431;52.198;9.902;2023-12-20T12:30:19;2.77;;;2.10;;
17524;SDS011;40431;52.198;9.902;2023-12-20T12:32:45;1.97;;;1.87;;
17524;SDS011;40431;52.198;9.902;2023-12-20T12:35:11;2.20;;;2.00;;
17524;SDS011;40431;52.198;9.902;2023-12-20T12:37:39;2.30;;;2.00;;
17524;SDS011;40431;52.198;9.902;2023-12-20T12:40:07;2.50;;;2.10;;
17524;SDS011;40431;52.198;9.902;2023-12-20T12:42:36;2.07;;;1.90;;
17524;SDS011;40431;52.198;9.902;2023-12-20T12:45:02;1.53;;;1.43;;
17524;SDS011;40431;52.198;9.902;2023-12-20T12:47:30;4.17;;;2.47;;
17524;SDS011;40431;52.198;9.902;2023-12-20T12:49:56;2.30;;;2.10;;
17524;SDS011;40431;52.198;9.902;2023-12-20T12:52:22;2.27;;;2.07;;
17524;SDS011;40431;52.198;9.902;2023-12-20T12:54:49;5.90;;;2.10;;
17524;SDS011;40431;52.198;9.902;2023-12-20T12:57:16;4.03;;;2.53;;
17524;SDS011;40431;52.198;9.902;2023-12-20T12:59:42;7.80;;;2.67;;
17524;SDS011;40431;52.198;9.902;2023-12-20T13:02:10;2.60;;;2.20;;
17524;SDS011;40431;52.198;9.902;2023-12-20T13:04:37;2.40;;;2.20;;
17524;SDS011;40431;52.198;9.902;2023-12-20T13:07:03;6.13;;;2.30;;
17524;SDS011;40431;52.198;9.902;2023-12-20T13:09:30;3.00;;;2.40;;
17524;SDS011;40431;52.198;9.902;2023-12-20T13:11:58;2.53;;;2.30;;
17524;SDS011;40431;52.198;9.902;2023-12-20T13:14:24;3.03;;;2.67;;
17524;SDS011;40431;52.198;9.902;2023-12-20T13:16:51;3.00;;;2.70;;
17524;SDS011;40431;52.198;9.902;2023-12-20T13:19:17;2.83;;;2.60;;
17524;SDS011;40431;52.198;9.902;2023-12-20T13:21:43;2.40;;;2.20;;
17524;SDS011;40431;52.198;9.902;2023-12-20T13:24:10;2.97;;;2.77;;
17524;SDS011;40431;52.198;9.902;2023-12-20T13:26:36;3.10;;;2.80;;
17524;SDS011;40431;52.198;9.902;2023-12-20T13:29:04;2.20;;;2.00;;
17524;SDS011;40431;52.198;9.902;2023-12-20T13:31:31;2.00;;;1.90;;
17524;SDS011;40431;52.198;9.902;2023-12-20T13:33:57;2.20;;;2.00;;
17524;SDS011;40431;52.198;9.902;2023-12-20T13:36:25;2.23;;;2.03;;
17524;SDS011;40431;52.198;9.902;2023-12-20T13:38:51;2.57;;;1.80;;
17524;SDS011;40431;52.198;9.902;2023-12-20T13:41:18;2.67;;;2.47;;
17524;SDS011;40431;52.198;9.902;2023-12-20T13:43:44;1.90;;;1.80;;
17524;SDS011;40431;52.198;9.902;2023-12-20T13:46:12;1.73;;;1.63;;
17524;SDS011;40431;52.198;9.902;2023-12-20T13:48:39;1.90;;;1.77;;
17524;SDS011;40431;52.198;9.902;2023-12-20T13:51:05;2.97;;;2.00;;
17524;SDS011;40431;52.198;9.902;2023-12-20T13:53:32;2.00;;;1.80;;
17524;SDS011;40431;52.198;9.902;2023-12-20T13:55:59;3.07;;;2.03;;
17524;SDS011;40431;52.198;9.902;2023-12-20T13:58:26;2.57;;;2.37;;
17524;SDS011;40431;52.198;9.902;2023-12-20T14:00:52;3.47;;;2.63;;
17524;SDS011;40431;52.198;9.902;2023-12-20T14:03:20;2.53;;;2.33;;
17524;SDS011;40431;52.198;9.902;2023-12-20T14:05:46;2.53;;;2.23;;
17524;SDS011;40431;52.198;9.902;2023-12-20T14:08:12;3.33;;;2.70;;
17524;SDS011;40431;52.198;9.902;2023-12-20T14:10:39;3.20;;;2.53;;
17524;SDS011;40431;52.198;9.902;2023-12-20T14:13:05;3.17;;;2.50;;
17524;SDS011;40431;52.198;9.902;2023-12-20T14:15:31;2.60;;;2.40;;
17524;SDS011;40431;52.198;9.902;2023-12-20T14:18:02;3.00;;;2.80;;
17524;SDS011;40431;52.198;9.902;2023-12-20T14:20:32;6.03;;;5.07;;
17524;SDS011;40431;52.198;9.902;2023-12-20T14:22:59;6.17;;;4.50;;
17524;SDS011;40431;52.198;9.902;2023-12-20T14:25:25;4.63;;;3.37;;
17524;SDS011;40431;52.198;9.902;2023-12-20T14:27:52;7.10;;;3.73;;
17524;SDS011;40431;52.198;9.902;2023-12-20T14:30:18;5.33;;;3.50;;
17524;SDS011;40431;52.198;9.902;2023-12-20T14:32:44;5.70;;;3.77;;
17524;SDS011;40431;52.198;9.902;2023-12-20T14:35:12;3.83;;;3.43;;
17524;SDS011;40431;52.198;9.902;2023-12-20T14:37:40;5.87;;;3.43;;
17524;SDS011;40431;52.198;9.902;2023-12-20T14:40:07;5.23;;;3.20;;